Seto — 3FZB4 — position and weather

sailwx.info

Track history (hours):
 
Tides and Currents Weather Stations Pressure Air Temp Water Temp Dewpoint Dewpoint Depression Visibility Wind Speed Wind Dir Waves Ship Positions

Seto

Last reported at 2017-Dec-07 20:44 UTC. Time now 2017-Dec-16 01:53 UTC.
Position N 29°41' W 121°45'.
Warning: this ship's position is 8 days out of date.

Length 273 m; draft 10 m.

Type: Cargo ship. MMSI: 354951000.

Date/timePositionNaut miles runAvg speedWind from/ knotsBaromVisibWave heightAir tempDewpointWater temp
2017-Dec-07 20:44N 29°41' W 121°45'613.1
2017-Dec-07 20:18N 29°41' W 121°52'513.5
2017-Dec-07 19:57N 29°40' W 121°57'614.0
2017-Dec-07 19:29N 29°41' W 122°05'713.9
2017-Dec-07 19:00N 29°41' W 122°12'713.6
2017-Dec-07 18:30N 29°41' W 122°20'713.4
2017-Dec-07 18:00N 29°42' W 122°28'713.4
2017-Dec-07 17:30N 29°42' W 122°36'713.4
2017-Dec-07 17:00N 29°43' W 122°43'713.6
2017-Dec-07 16:30N 29°44' W 122°51'3713.5
2017-Dec-07 13:46N 29°47' W 123°33'313.5
2017-Dec-07 13:30N 29°47' W 123°37'7313.4
2017-Dec-07 08:01N 29°53' W 125°02'313.1
2017-Dec-07 07:45N 29°54' W 125°06'1913.1
2017-Dec-07 06:20N 29°55' W 125°27'412.7
2017-Dec-07 05:59N 29°56' W 125°32'613.0
2017-Dec-07 05:30N 29°56' W 125°39'1612.9
2017-Dec-07 04:14N 29°57' W 125°58'312.7
2017-Dec-07 04:00N 29°57' W 126°02'712.6
2017-Dec-07 03:27N 29°58' W 126°10'612.7
2017-Dec-07 03:00N 29°58' W 126°16'2012.7
2017-Dec-07 01:26N 29°60' W 126°39'3612.8
2017-Dec-06 22:35N 30°03' W 127°21'212.8
2017-Dec-06 22:25N 30°03' W 127°23'812.8
2017-Dec-06 21:49N 30°04' W 127°32'612.8
2017-Dec-06 21:21N 30°05' W 127°39'  
Track history (hours):
 
Tides and Currents Weather Stations Pressure Air Temp Water Temp Dewpoint Dewpoint Depression Visibility Wind Speed Wind Dir Waves Ship Positions

Seto

Last reported at 2017-Dec-07 20:44 UTC. Time now 2017-Dec-16 01:53 UTC.
Position N 29°41' W 121°45'.
Warning: this ship's position is 8 days out of date.

Length 273 m; draft 10 m.

Type: Cargo ship. MMSI: 354951000.

Date/timePositionNaut miles runAvg speedWind from/ knotsBaromVisibWave heightAir tempDewpointWater temp
2017-Dec-07 20:44N 29°41' W 121°45'613.1
2017-Dec-07 20:18N 29°41' W 121°52'513.5
2017-Dec-07 19:57N 29°40' W 121°57'614.0
2017-Dec-07 19:29N 29°41' W 122°05'713.9
2017-Dec-07 19:00N 29°41' W 122°12'713.6
2017-Dec-07 18:30N 29°41' W 122°20'713.4
2017-Dec-07 18:00N 29°42' W 122°28'713.4
2017-Dec-07 17:30N 29°42' W 122°36'713.4
2017-Dec-07 17:00N 29°43' W 122°43'713.6
2017-Dec-07 16:30N 29°44' W 122°51'3713.5
2017-Dec-07 13:46N 29°47' W 123°33'313.5
2017-Dec-07 13:30N 29°47' W 123°37'7313.4
2017-Dec-07 08:01N 29°53' W 125°02'313.1
2017-Dec-07 07:45N 29°54' W 125°06'1913.1
2017-Dec-07 06:20N 29°55' W 125°27'412.7
2017-Dec-07 05:59N 29°56' W 125°32'613.0
2017-Dec-07 05:30N 29°56' W 125°39'1612.9
2017-Dec-07 04:14N 29°57' W 125°58'312.7
2017-Dec-07 04:00N 29°57' W 126°02'712.6
2017-Dec-07 03:27N 29°58' W 126°10'612.7
2017-Dec-07 03:00N 29°58' W 126°16'2012.7
2017-Dec-07 01:26N 29°60' W 126°39'3612.8
2017-Dec-06 22:35N 30°03' W 127°21'212.8
2017-Dec-06 22:25N 30°03' W 127°23'812.8
2017-Dec-06 21:49N 30°04' W 127°32'612.8
2017-Dec-06 21:21N 30°05' W 127°39'  

Dump ship's entire track history